Time;durP1;ratioP1;P1;durP2;ratioP2;P2;SDS_P1;SDS_P2;PMS_P1;PMS_P2;Temp;Humidity;BMP_temperature;BMP_pressure;BME280_temperature;BME280_humidity;BME280_pressure;Samples;Min_cycle;Max_cycle;Signal;HPM_P1;HPM_P2
2023/09/07 00:02:00;;;;;;;3.43;2.30;;;;;;;;;;4915626;29;20483;-67
2023/09/07 00:04:27;;;;;;;6.17;1.87;;;;;;;;;;4915555;29;20547;-69
2023/09/07 00:06:55;;;;;;;3.73;2.33;;;;;;;;;;4913842;29;20448;-68
2023/09/07 00:09:23;;;;;;;2.77;1.70;;;;;;;;;;4915697;29;20452;-67
2023/09/07 00:11:51;;;;;;;4.03;2.17;;;;;;;;;;4914316;29;20861;-68
2023/09/07 00:14:18;;;;;;;4.33;1.87;;;;;;;;;;4914917;29;20449;-68
2023/09/07 00:16:46;;;;;;;2.10;1.20;;;;;;;;;;4914964;29;20547;-67
2023/09/07 00:19:14;;;;;;;3.30;1.50;;;;;;;;;;4915164;29;20458;-68
2023/09/07 00:21:41;;;;;;;2.57;1.37;;;;;;;;;;4914940;29;20468;-68
2023/09/07 00:24:10;;;;;;;4.27;2.37;;;;;;;;;;4913823;29;20456;-68
2023/09/07 00:26:41;;;;;;;2.83;1.80;;;;;;;;;;4915614;29;20440;-68
2023/09/07 00:29:09;;;;;;;3.07;1.83;;;;;;;;;;4915246;29;20456;-68
2023/09/07 00:31:36;;;;;;;2.87;1.80;;;;;;;;;;4923197;29;20469;-66
2023/09/07 00:34:03;;;;;;;3.50;2.07;;;;;;;;;;4927604;29;20797;-68
2023/09/07 00:36:31;;;;;;;2.63;1.77;;;;;;;;;;4919155;29;20484;-67
2023/09/07 00:38:58;;;;;;;3.83;1.93;;;;;;;;;;4914755;29;20872;-67
2023/09/07 00:41:25;;;;;;;2.90;2.20;;;;;;;;;;4914601;29;20982;-68
2023/09/07 00:43:54;;;;;;;2.27;1.63;;;;;;;;;;4914537;29;20444;-68
2023/09/07 00:46:21;;;;;;;3.17;1.83;;;;;;;;;;4914869;29;20452;-68
2023/09/07 00:48:49;;;;;;;5.47;2.10;;;;;;;;;;4914043;29;20449;-67
2023/09/07 00:51:16;;;;;;;3.53;2.00;;;;;;;;;;4914663;29;20479;-67
2023/09/07 00:53:44;;;;;;;2.60;1.93;;;;;;;;;;4914955;29;20475;-67
2023/09/07 00:56:12;;;;;;;2.80;1.90;;;;;;;;;;4914378;29;20491;-68
2023/09/07 00:58:39;;;;;;;3.57;2.00;;;;;;;;;;4914264;29;20445;-67
2023/09/07 01:01:06;;;;;;;2.30;1.63;;;;;;;;;;4909146;29;20807;-68
2023/09/07 01:03:33;;;;;;;3.13;1.63;;;;;;;;;;4905432;29;20528;-68
2023/09/07 01:06:03;;;;;;;3.60;1.70;;;;;;;;;;4917912;29;20453;-68
2023/09/07 01:08:33;;;;;;;2.50;1.60;;;;;;;;;;4917677;29;20787;-68
2023/09/07 01:11:03;;;;;;;2.40;1.50;;;;;;;;;;4917811;29;20455;-67
2023/09/07 01:13:30;;;;;;;3.17;1.60;;;;;;;;;;4917421;29;20455;-67
2023/09/07 01:15:57;;;;;;;3.00;1.70;;;;;;;;;;4917103;29;20449;-68
2023/09/07 01:18:24;;;;;;;2.10;1.43;;;;;;;;;;4917528;29;20445;-68
2023/09/07 01:20:51;;;;;;;2.97;1.90;;;;;;;;;;4916865;29;20449;-68
2023/09/07 01:23:20;;;;;;;2.50;1.63;;;;;;;;;;4917535;29;20512;-69
2023/09/07 01:25:46;;;;;;;3.27;2.27;;;;;;;;;;4916819;29;20448;-68
2023/09/07 01:28:15;;;;;;;3.10;1.50;;;;;;;;;;4917296;29;20512;-68
2023/09/07 01:30:42;;;;;;;3.83;2.30;;;;;;;;;;4917673;29;20778;-66
2023/09/07 01:33:09;;;;;;;2.80;1.47;;;;;;;;;;4916757;29;20979;-68
2023/09/07 01:35:37;;;;;;;6.07;1.90;;;;;;;;;;4917332;29;20540;-67
2023/09/07 01:38:04;;;;;;;2.80;2.10;;;;;;;;;;4916584;29;20488;-68
2023/09/07 01:40:33;;;;;;;2.60;1.83;;;;;;;;;;4917035;29;20445;-68
2023/09/07 01:43:00;;;;;;;2.83;1.73;;;;;;;;;;4916609;29;20499;-67
2023/09/07 01:45:27;;;;;;;3.50;1.93;;;;;;;;;;4916371;29;20437;-67
2023/09/07 01:47:54;;;;;;;4.83;2.20;;;;;;;;;;4904470;29;20567;-68
2023/09/07 01:50:21;;;;;;;3.10;1.73;;;;;;;;;;4916186;29;20974;-67
2023/09/07 01:52:49;;;;;;;3.60;2.47;;;;;;;;;;4916864;29;20487;-68
2023/09/07 01:55:16;;;;;;;3.93;1.53;;;;;;;;;;4917047;29;20504;-69
2023/09/07 01:57:45;;;;;;;4.37;2.53;;;;;;;;;;4915706;29;20488;-68
2023/09/07 02:00:12;;;;;;;3.23;1.80;;;;;;;;;;4916042;29;20445;-68
2023/09/07 02:02:39;;;;;;;3.10;2.03;;;;;;;;;;4916469;29;20479;-68
2023/09/07 02:05:06;;;;;;;2.77;2.03;;;;;;;;;;4916622;29;20969;-68
2023/09/07 02:07:33;;;;;;;4.70;1.93;;;;;;;;;;4916098;29;20444;-68
2023/09/07 02:10:00;;;;;;;3.00;1.80;;;;;;;;;;4916985;29;20456;-68
2023/09/07 02:12:27;;;;;;;2.90;1.90;;;;;;;;;;4915471;29;20473;-68
2023/09/07 02:14:56;;;;;;;2.50;1.10;;;;;;;;;;4916112;29;20475;-67
2023/09/07 02:17:25;;;;;;;2.57;1.40;;;;;;;;;;4916186;29;20488;-68
2023/09/07 02:19:52;;;;;;;3.30;2.00;;;;;;;;;;4916095;29;20445;-68
2023/09/07 02:22:19;;;;;;;6.47;2.00;;;;;;;;;;4916659;29;20465;-67
2023/09/07 02:24:46;;;;;;;3.30;1.77;;;;;;;;;;4915516;29;21052;-67
2023/09/07 02:27:14;;;;;;;3.10;1.77;;;;;;;;;;4916636;29;20460;-68
2023/09/07 02:29:41;;;;;;;5.03;2.00;;;;;;;;;;4916153;29;20456;-67
2023/09/07 02:32:10;;;;;;;3.00;1.37;;;;;;;;;;4916408;29;20886;-67
2023/09/07 02:34:37;;;;;;;3.53;1.93;;;;;;;;;;4915877;29;20480;-68
2023/09/07 02:37:04;;;;;;;2.77;1.53;;;;;;;;;;4916035;29;20496;-68
2023/09/07 02:39:31;;;;;;;3.50;2.00;;;;;;;;;;4915464;29;20521;-67
2023/09/07 02:41:58;;;;;;;2.90;1.60;;;;;;;;;;4915573;29;20910;-67
2023/09/07 02:44:26;;;;;;;2.80;1.53;;;;;;;;;;4915554;29;20997;-67
2023/09/07 02:46:53;;;;;;;2.83;1.77;;;;;;;;;;4916217;29;20453;-69
2023/09/07 02:49:21;;;;;;;3.63;1.73;;;;;;;;;;4915928;29;20584;-69
2023/09/07 02:51:48;;;;;;;3.50;1.60;;;;;;;;;;4915448;29;20892;-69
2023/09/07 02:54:15;;;;;;;2.93;1.60;;;;;;;;;;4915477;29;20896;-66
2023/09/07 02:56:42;;;;;;;3.13;2.17;;;;;;;;;;4905572;29;20492;-67
2023/09/07 02:59:09;;;;;;;2.70;1.50;;;;;;;;;;4912614;29;20935;-68
2023/09/07 03:01:37;;;;;;;2.70;1.70;;;;;;;;;;4915096;29;20473;-67
2023/09/07 03:04:04;;;;;;;3.90;1.83;;;;;;;;;;4915990;29;20454;-67
2023/09/07 03:06:33;;;;;;;3.40;1.67;;;;;;;;;;4915518;29;20449;-68
2023/09/07 03:09:00;;;;;;;4.13;2.10;;;;;;;;;;4915524;29;20448;-68
2023/09/07 03:11:33;;;;;;;3.70;2.00;;;;;;;;;;4914691;29;21002;-68
2023/09/07 03:14:00;;;;;;;3.90;1.90;;;;;;;;;;4916031;29;20453;-68
2023/09/07 03:16:27;;;;;;;4.93;1.83;;;;;;;;;;4914972;29;20448;-68
2023/09/07 03:18:54;;;;;;;4.00;2.03;;;;;;;;;;4914957;29;20511;-67
2023/09/07 03:21:25;;;;;;;2.70;1.40;;;;;;;;;;4915267;29;20464;-68
2023/09/07 03:23:53;;;;;;;3.53;1.77;;;;;;;;;;4914788;29;20490;-68
2023/09/07 03:26:20;;;;;;;3.17;1.80;;;;;;;;;;4915511;29;20452;-68
2023/09/07 03:28:49;;;;;;;3.80;1.80;;;;;;;;;;4902327;29;20437;-67
2023/09/07 03:31:16;;;;;;;2.47;1.67;;;;;;;;;;4914977;29;20468;-69
2023/09/07 03:33:43;;;;;;;3.10;1.40;;;;;;;;;;4915066;29;20446;-67
2023/09/07 03:36:13;;;;;;;3.00;1.83;;;;;;;;;;4914175;29;20441;-67
2023/09/07 03:38:40;;;;;;;2.80;1.73;;;;;;;;;;4914927;29;20890;-68
2023/09/07 03:41:09;;;;;;;4.30;1.73;;;;;;;;;;4915239;29;20453;-68
2023/09/07 03:43:36;;;;;;;4.60;1.77;;;;;;;;;;4914914;29;20508;-67
2023/09/07 03:46:03;;;;;;;5.00;2.50;;;;;;;;;;4915303;29;20500;-67
2023/09/07 03:48:30;;;;;;;3.60;1.80;;;;;;;;;;4914763;29;20451;-67
2023/09/07 03:50:57;;;;;;;3.90;1.90;;;;;;;;;;4914809;29;20468;-68
2023/09/07 03:53:27;;;;;;;3.17;2.70;;;;;;;;;;4914422;29;20552;-68
2023/09/07 03:55:54;;;;;;;3.00;2.10;;;;;;;;;;4914604;29;20838;-68
2023/09/07 03:58:25;;;;;;;3.40;1.60;;;;;;;;;;4915057;29;20524;-67
2023/09/07 04:00:52;;;;;;;4.00;2.10;;;;;;;;;;4915444;29;20456;-68
2023/09/07 04:03:19;;;;;;;3.07;1.77;;;;;;;;;;4921623;29;20475;-68
2023/09/07 04:05:46;;;;;;;3.07;1.70;;;;;;;;;;4922345;29;20479;-67
2023/09/07 04:08:15;;;;;;;3.00;1.70;;;;;;;;;;4924887;29;20449;-66
2023/09/07 04:10:42;;;;;;;2.43;1.70;;;;;;;;;;4924116;29;20448;-67
2023/09/07 04:13:09;;;;;;;3.27;2.20;;;;;;;;;;4916896;29;20472;-67
2023/09/07 04:15:44;;;;;;;2.47;1.73;;;;;;;;;;4914884;29;20448;-68
2023/09/07 04:18:12;;;;;;;4.50;2.30;;;;;;;;;;4914675;29;20484;-68
2023/09/07 04:20:39;;;;;;;4.77;2.63;;;;;;;;;;4913979;29;20523;-68
2023/09/07 04:23:06;;;;;;;2.93;1.50;;;;;;;;;;4914918;29;20471;-67
2023/09/07 04:25:34;;;;;;;2.90;1.80;;;;;;;;;;4914942;29;20453;-67
2023/09/07 04:28:01;;;;;;;4.50;1.80;;;;;;;;;;4914567;29;20451;-67
2023/09/07 04:30:28;;;;;;;4.27;1.90;;;;;;;;;;4913977;29;20449;-68
2023/09/07 04:32:57;;;;;;;3.47;1.80;;;;;;;;;;4914167;29;20476;-67
2023/09/07 04:35:30;;;;;;;3.43;1.80;;;;;;;;;;4915121;29;20516;-68
2023/09/07 04:37:58;;;;;;;3.13;2.03;;;;;;;;;;4918600;29;20519;-69
2023/09/07 04:40:25;;;;;;;3.03;1.57;;;;;;;;;;4918384;29;20931;-68
2023/09/07 04:42:52;;;;;;;3.90;1.80;;;;;;;;;;4918159;29;20982;-68
2023/09/07 04:45:19;;;;;;;3.27;1.87;;;;;;;;;;4917473;29;20456;-68
2023/09/07 04:47:47;;;;;;;3.00;1.80;;;;;;;;;;4917451;29;20448;-68
2023/09/07 04:50:15;;;;;;;4.70;1.73;;;;;;;;;;4917463;29;20504;-68
2023/09/07 04:52:42;;;;;;;4.50;2.30;;;;;;;;;;4913969;29;20485;-68
2023/09/07 04:55:09;;;;;;;4.30;2.17;;;;;;;;;;4909098;29;20876;-68
2023/09/07 04:57:37;;;;;;;7.93;2.70;;;;;;;;;;4918254;29;20484;-67
2023/09/07 05:00:07;;;;;;;3.87;2.50;;;;;;;;;;4918275;29;20449;-67
2023/09/07 05:02:38;;;;;;;4.40;2.07;;;;;;;;;;4917546;29;20515;-68
2023/09/07 05:05:05;;;;;;;3.97;1.97;;;;;;;;;;4916356;29;20526;-69
2023/09/07 05:07:34;;;;;;;3.87;2.20;;;;;;;;;;4917140;29;20832;-66
2023/09/07 05:10:01;;;;;;;3.07;2.07;;;;;;;;;;4917548;29;20472;-68
2023/09/07 05:12:29;;;;;;;4.60;2.60;;;;;;;;;;4917672;29;20480;-67
2023/09/07 05:14:56;;;;;;;3.73;2.30;;;;;;;;;;4917676;29;20453;-67
2023/09/07 05:17:23;;;;;;;3.00;2.23;;;;;;;;;;4917287;29;20559;-67
2023/09/07 05:19:50;;;;;;;4.33;2.53;;;;;;;;;;4917019;29;20496;-67
2023/09/07 05:22:17;;;;;;;5.00;2.53;;;;;;;;;;4917705;29;20534;-67
2023/09/07 05:24:47;;;;;;;4.10;2.50;;;;;;;;;;4916731;29;20519;-68
2023/09/07 05:27:14;;;;;;;3.33;2.00;;;;;;;;;;4916924;29;20928;-68
2023/09/07 05:29:41;;;;;;;4.57;2.33;;;;;;;;;;4917726;29;20447;-69
2023/09/07 05:32:09;;;;;;;4.10;2.50;;;;;;;;;;4917818;29;20492;-68
2023/09/07 05:34:36;;;;;;;3.20;1.70;;;;;;;;;;4917768;29;20457;-68
2023/09/07 05:37:03;;;;;;;2.93;1.90;;;;;;;;;;4917851;29;20456;-67
2023/09/07 05:39:30;;;;;;;3.27;1.80;;;;;;;;;;4916594;29;20484;-68
2023/09/07 05:41:58;;;;;;;2.90;2.03;;;;;;;;;;4916782;29;20478;-68
2023/09/07 05:44:25;;;;;;;4.50;2.40;;;;;;;;;;4917065;29;20948;-68
2023/09/07 05:46:54;;;;;;;5.03;2.60;;;;;;;;;;4916746;29;20455;-68
2023/09/07 05:49:21;;;;;;;4.43;2.07;;;;;;;;;;4917486;29;20935;-69
2023/09/07 05:51:48;;;;;;;7.57;2.67;;;;;;;;;;4917318;29;20714;-68
2023/09/07 05:54:15;;;;;;;3.90;2.63;;;;;;;;;;4916044;29;20452;-67
2023/09/07 05:56:42;;;;;;;7.07;3.80;;;;;;;;;;4916466;29;20445;-67
2023/09/07 05:59:10;;;;;;;4.00;2.97;;;;;;;;;;4916061;29;20484;-67
2023/09/07 06:01:37;;;;;;;4.87;2.77;;;;;;;;;;4916672;29;20856;-67
2023/09/07 06:04:05;;;;;;;2.80;1.73;;;;;;;;;;4916715;29;20455;-66
2023/09/07 06:06:32;;;;;;;3.60;2.43;;;;;;;;;;4914260;29;20452;-67
2023/09/07 06:08:59;;;;;;;6.87;3.50;;;;;;;;;;4916241;29;20429;-67
2023/09/07 06:11:26;;;;;;;7.47;3.10;;;;;;;;;;4915393;29;20527;-67
2023/09/07 06:13:53;;;;;;;8.37;3.77;;;;;;;;;;4900078;29;20453;-68
2023/09/07 06:16:22;;;;;;;6.13;3.27;;;;;;;;;;4912201;29;20451;-67
2023/09/07 06:18:49;;;;;;;4.37;2.43;;;;;;;;;;4916263;29;20521;-68
2023/09/07 06:21:16;;;;;;;4.20;2.10;;;;;;;;;;4915797;29;20990;-68
2023/09/07 06:23:43;;;;;;;4.23;2.33;;;;;;;;;;4915697;29;20453;-68
2023/09/07 06:26:10;;;;;;;6.37;2.50;;;;;;;;;;4915946;29;20947;-68
2023/09/07 06:28:37;;;;;;;4.23;2.50;;;;;;;;;;4916493;29;20803;-68
2023/09/07 06:31:05;;;;;;;5.40;2.87;;;;;;;;;;4915428;29;20460;-68
2023/09/07 06:33:34;;;;;;;8.43;3.20;;;;;;;;;;4915507;29;20463;-67
2023/09/07 06:36:02;;;;;;;3.83;2.53;;;;;;;;;;4916418;29;20816;-67
2023/09/07 06:38:29;;;;;;;4.50;3.10;;;;;;;;;;4906769;29;20503;-67
2023/09/07 06:40:56;;;;;;;5.43;2.67;;;;;;;;;;4905652;29;20840;-67
2023/09/07 06:43:23;;;;;;;5.13;3.13;;;;;;;;;;4915819;29;20452;-67
2023/09/07 06:45:50;;;;;;;4.30;2.63;;;;;;;;;;4916117;29;20463;-67
2023/09/07 06:48:17;;;;;;;4.63;2.90;;;;;;;;;;4915638;29;20445;-68
2023/09/07 06:50:46;;;;;;;6.77;3.20;;;;;;;;;;4910320;29;20480;-68
2023/09/07 06:53:13;;;;;;;4.67;2.80;;;;;;;;;;4912998;29;20953;-68
2023/09/07 06:55:40;;;;;;;3.50;2.43;;;;;;;;;;4915807;29;20455;-67
2023/09/07 06:58:07;;;;;;;4.37;2.80;;;;;;;;;;4914713;29;20566;-67
2023/09/07 07:00:34;;;;;;;4.17;2.60;;;;;;;;;;4908368;29;20467;-67
2023/09/07 07:03:01;;;;;;;4.50;2.83;;;;;;;;;;4914749;29;20469;-67
2023/09/07 07:05:29;;;;;;;5.30;3.23;;;;;;;;;;4915397;29;20452;-66
2023/09/07 07:07:58;;;;;;;3.93;2.93;;;;;;;;;;4914775;29;20475;-66
2023/09/07 07:10:25;;;;;;;4.67;3.30;;;;;;;;;;4915305;29;20818;-68
2023/09/07 07:12:52;;;;;;;6.00;3.23;;;;;;;;;;4915495;29;20469;-68
2023/09/07 07:15:20;;;;;;;5.07;3.17;;;;;;;;;;4915255;29;20471;-67
2023/09/07 07:17:47;;;;;;;5.23;2.67;;;;;;;;;;4915677;29;20463;-68
2023/09/07 07:20:14;;;;;;;4.87;2.90;;;;;;;;;;4915263;29;20546;-67
2023/09/07 07:22:41;;;;;;;6.60;3.57;;;;;;;;;;4915433;29;20555;-67
2023/09/07 07:25:10;;;;;;;3.90;2.93;;;;;;;;;;4914832;29;20516;-68
2023/09/07 07:27:38;;;;;;;5.57;3.33;;;;;;;;;;4914255;29;20473;-68
2023/09/07 07:30:06;;;;;;;4.47;3.87;;;;;;;;;;4914671;29;20451;-67
2023/09/07 07:32:34;;;;;;;6.70;3.70;;;;;;;;;;4915429;29;20532;-66
2023/09/07 07:35:01;;;;;;;4.50;3.03;;;;;;;;;;4915651;29;20962;-68
2023/09/07 07:37:28;;;;;;;5.20;3.77;;;;;;;;;;4918382;29;20453;-66
2023/09/07 07:39:55;;;;;;;6.33;4.00;;;;;;;;;;4924741;29;20488;-66
2023/09/07 07:42:24;;;;;;;3.30;2.97;;;;;;;;;;4918704;29;20472;-67
2023/09/07 07:44:55;;;;;;;5.23;3.10;;;;;;;;;;4917137;29;20445;-69
2023/09/07 07:47:22;;;;;;;4.33;2.90;;;;;;;;;;4914257;29;20504;-67
2023/09/07 07:49:49;;;;;;;5.00;3.63;;;;;;;;;;4915182;29;20500;-68
2023/09/07 07:52:16;;;;;;;3.73;2.90;;;;;;;;;;4913337;29;20568;-66
2023/09/07 07:54:43;;;;;;;4.60;3.47;;;;;;;;;;4914808;29;20448;-68
2023/09/07 07:57:10;;;;;;;6.23;2.60;;;;;;;;;;4915299;29;20449;-68
2023/09/07 07:59:39;;;;;;;5.20;2.97;;;;;;;;;;4914466;29;20480;-66
2023/09/07 08:02:07;;;;;;;4.07;2.97;;;;;;;;;;4908430;29;20472;-67
2023/09/07 08:04:35;;;;;;;7.10;4.17;;;;;;;;;;4915194;29;20820;-68
2023/09/07 08:07:03;;;;;;;5.30;3.87;;;;;;;;;;4914617;29;20543;-67
2023/09/07 08:09:30;;;;;;;4.67;2.83;;;;;;;;;;4909110;29;20548;-67
2023/09/07 08:11:58;;;;;;;3.27;2.83;;;;;;;;;;4913326;29;20823;-66
2023/09/07 08:14:25;;;;;;;4.60;3.10;;;;;;;;;;4918387;29;20449;-67
2023/09/07 08:16:54;;;;;;;5.27;3.40;;;;;;;;;;4918886;29;20452;-68
2023/09/07 08:19:21;;;;;;;4.50;3.00;;;;;;;;;;4917946;29;20488;-67
2023/09/07 08:21:48;;;;;;;3.87;2.97;;;;;;;;;;4919408;29;20587;-68
2023/09/07 08:24:15;;;;;;;4.67;3.40;;;;;;;;;;4918487;29;20448;-68
2023/09/07 08:26:43;;;;;;;4.57;2.97;;;;;;;;;;4917308;29;20833;-67
2023/09/07 08:29:10;;;;;;;3.23;2.50;;;;;;;;;;4918234;29;20441;-68
2023/09/07 08:31:38;;;;;;;4.83;3.17;;;;;;;;;;4918054;29;20595;-68
2023/09/07 08:34:09;;;;;;;5.37;3.50;;;;;;;;;;4918549;29;20444;-66
2023/09/07 08:36:36;;;;;;;6.83;3.90;;;;;;;;;;4917884;29;20819;-67
2023/09/07 08:39:07;;;;;;;4.20;2.90;;;;;;;;;;4918493;29;20483;-68
2023/09/07 08:41:41;;;;;;;5.37;3.90;;;;;;;;;;4918829;29;21009;-68
2023/09/07 08:44:08;;;;;;;5.40;3.30;;;;;;;;;;4918896;29;20456;-68
2023/09/07 08:46:36;;;;;;;6.53;3.60;;;;;;;;;;4917847;29;20460;-67
2023/09/07 08:49:03;;;;;;;4.20;3.07;;;;;;;;;;4918532;29;20455;-67
2023/09/07 08:51:32;;;;;;;5.23;3.17;;;;;;;;;;4904055;29;20484;-68
2023/09/07 08:54:00;;;;;;;3.77;3.07;;;;;;;;;;4904965;29;20623;-68
2023/09/07 08:56:27;;;;;;;5.50;3.50;;;;;;;;;;4911028;29;20453;-69
2023/09/07 08:58:54;;;;;;;4.63;3.03;;;;;;;;;;4912639;29;20496;-68
2023/09/07 09:01:22;;;;;;;5.40;3.40;;;;;;;;;;4917964;29;20841;-68
2023/09/07 09:03:49;;;;;;;6.63;3.83;;;;;;;;;;4917906;29;20515;-69
2023/09/07 09:06:18;;;;;;;4.90;3.13;;;;;;;;;;4917969;29;20444;-67
2023/09/07 09:08:48;;;;;;;6.13;3.60;;;;;;;;;;4917273;29;20448;-67
2023/09/07 09:11:17;;;;;;;4.07;2.80;;;;;;;;;;4917501;29;21009;-66
2023/09/07 09:13:45;;;;;;;3.90;2.93;;;;;;;;;;4918247;29;20480;-68
2023/09/07 09:16:12;;;;;;;4.73;3.40;;;;;;;;;;4918086;29;20440;-68
2023/09/07 09:18:40;;;;;;;3.60;3.30;;;;;;;;;;4917822;29;20502;-68
2023/09/07 09:21:07;;;;;;;3.57;2.73;;;;;;;;;;4916788;29;20444;-68
2023/09/07 09:23:34;;;;;;;3.93;2.90;;;;;;;;;;4916784;29;20449;-68
2023/09/07 09:26:03;;;;;;;4.03;3.03;;;;;;;;;;4917757;29;20452;-67
2023/09/07 09:28:31;;;;;;;4.90;3.33;;;;;;;;;;4916580;29;20453;-67
2023/09/07 09:30:58;;;;;;;4.30;3.50;;;;;;;;;;4916242;29;20452;-67
2023/09/07 09:33:25;;;;;;;4.73;2.30;;;;;;;;;;4916401;29;20448;-67
2023/09/07 09:35:53;;;;;;;4.17;3.00;;;;;;;;;;4917405;29;20445;-66
2023/09/07 09:38:20;;;;;;;3.43;2.70;;;;;;;;;;4917620;29;21010;-67
2023/09/07 09:40:47;;;;;;;4.50;3.33;;;;;;;;;;4916063;29;20492;-67
2023/09/07 09:43:16;;;;;;;7.27;3.40;;;;;;;;;;4917368;29;20836;-67
2023/09/07 09:45:43;;;;;;;4.00;2.80;;;;;;;;;;4917521;29;20444;-67
2023/09/07 09:48:11;;;;;;;4.13;3.00;;;;;;;;;;4916627;29;20475;-67
2023/09/07 09:50:38;;;;;;;4.83;3.90;;;;;;;;;;4910123;29;20441;-67
2023/09/07 09:53:07;;;;;;;5.07;2.83;;;;;;;;;;4917318;29;20992;-67
2023/09/07 09:55:35;;;;;;;5.37;3.70;;;;;;;;;;4911358;29;20948;-67
2023/09/07 09:58:02;;;;;;;5.20;3.27;;;;;;;;;;4916577;29;20453;-67
2023/09/07 10:00:31;;;;;;;4.57;3.60;;;;;;;;;;4917123;29;20853;-68
2023/09/07 10:03:04;;;;;;;4.53;3.57;;;;;;;;;;4916676;29;20510;-66
2023/09/07 10:05:32;;;;;;;4.63;3.27;;;;;;;;;;4915820;29;20444;-67
2023/09/07 10:08:05;;;;;;;5.17;3.83;;;;;;;;;;4916675;29;20452;-69
2023/09/07 10:10:34;;;;;;;5.30;3.73;;;;;;;;;;4916616;29;20449;-67
2023/09/07 10:13:01;;;;;;;5.70;4.20;;;;;;;;;;4904817;29;20472;-68
2023/09/07 10:15:32;;;;;;;6.53;3.83;;;;;;;;;;4916707;29;20482;-68
2023/09/07 10:18:09;;;;;;;6.03;3.07;;;;;;;;;;4916036;29;20452;-69
2023/09/07 10:20:48;;;;;;;5.93;4.30;;;;;;;;;;4916188;29;20519;-66
2023/09/07 10:23:15;;;;;;;6.73;4.00;;;;;;;;;;4917005;29;20464;-67
2023/09/07 10:25:43;;;;;;;5.10;3.30;;;;;;;;;;4916859;29;20562;-68
2023/09/07 10:28:19;;;;;;;4.60;3.60;;;;;;;;;;4916346;29;20445;-66
2023/09/07 10:30:58;;;;;;;5.27;3.80;;;;;;;;;;4916422;29;20444;-68
2023/09/07 10:33:25;;;;;;;5.37;3.70;;;;;;;;;;4915670;29;20444;-67
2023/09/07 10:35:52;;;;;;;4.43;3.10;;;;;;;;;;4916217;29;20449;-67
2023/09/07 10:38:19;;;;;;;5.10;3.33;;;;;;;;;;4916506;29;20456;-68
2023/09/07 10:40:47;;;;;;;5.30;3.67;;;;;;;;;;4915645;29;20484;-68
2023/09/07 10:43:14;;;;;;;4.67;2.90;;;;;;;;;;4916375;29;20951;-67
2023/09/07 10:45:41;;;;;;;3.97;3.00;;;;;;;;;;4916361;29;20552;-68
2023/09/07 10:48:09;;;;;;;5.77;3.57;;;;;;;;;;4916030;29;20448;-67
2023/09/07 10:50:43;;;;;;;5.03;3.70;;;;;;;;;;4915920;29;20456;-67
2023/09/07 10:53:10;;;;;;;5.90;3.53;;;;;;;;;;4915504;29;20472;-69
2023/09/07 10:55:45;;;;;;;6.27;3.87;;;;;;;;;;5088172;28;21046;-67
2023/09/07 10:58:13;;;;;;;5.00;3.87;;;;;;;;;;5089274;28;20531;-69
2023/09/07 11:00:40;;;;;;;5.17;3.87;;;;;;;;;;5088654;28;20444;-69
2023/09/07 11:03:11;;;;;;;5.07;3.80;;;;;;;;;;5090340;28;20464;-68
2023/09/07 11:05:40;;;;;;;5.77;4.20;;;;;;;;;;5091437;28;20436;-68
2023/09/07 11:08:08;;;;;;;6.20;3.57;;;;;;;;;;5089054;28;20441;-72
2023/09/07 11:10:35;;;;;;;4.20;3.47;;;;;;;;;;5088720;28;20437;-68
2023/09/07 11:13:05;;;;;;;8.00;3.63;;;;;;;;;;5089149;28;20457;-68
2023/09/07 11:15:33;;;;;;;5.47;3.90;;;;;;;;;;5088999;28;20537;-68
2023/09/07 11:18:00;;;;;;;7.30;4.20;;;;;;;;;;5075675;28;20444;-67
2023/09/07 11:20:27;;;;;;;4.53;3.43;;;;;;;;;;5087653;28;20440;-67
2023/09/07 11:22:55;;;;;;;5.10;4.13;;;;;;;;;;5078233;28;20457;-68
2023/09/07 11:25:22;;;;;;;6.90;3.70;;;;;;;;;;5088895;28;20436;-69
2023/09/07 11:27:49;;;;;;;5.10;4.03;;;;;;;;;;5088490;28;20447;-68
2023/09/07 11:30:18;;;;;;;6.80;4.37;;;;;;;;;;5088280;28;20440;-68
2023/09/07 11:32:46;;;;;;;4.73;3.10;;;;;;;;;;5088036;28;20452;-68
2023/09/07 11:35:15;;;;;;;5.67;3.77;;;;;;;;;;5088438;28;20505;-67
2023/09/07 11:37:42;;;;;;;4.50;3.57;;;;;;;;;;5087222;28;20444;-72
2023/09/07 11:40:12;;;;;;;7.60;3.90;;;;;;;;;;5087481;28;20452;-68
2023/09/07 11:42:39;;;;;;;4.40;3.33;;;;;;;;;;5087971;28;20460;-68
2023/09/07 11:45:09;;;;;;;4.20;3.27;;;;;;;;;;5088270;28;20444;-68
2023/09/07 11:47:37;;;;;;;5.80;3.70;;;;;;;;;;5087437;28;20539;-67
2023/09/07 11:50:04;;;;;;;4.90;3.40;;;;;;;;;;5087664;28;20433;-67
2023/09/07 11:52:32;;;;;;;6.70;4.30;;;;;;;;;;5088069;28;20460;-69
2023/09/07 11:54:59;;;;;;;4.50;3.53;;;;;;;;;;5087174;28;20512;-68
2023/09/07 11:57:26;;;;;;;4.30;3.50;;;;;;;;;;5087559;28;20448;-68
2023/09/07 11:59:53;;;;;;;4.27;3.60;;;;;;;;;;5087345;28;20456;-68
2023/09/07 12:02:21;;;;;;;6.10;3.80;;;;;;;;;;5088030;28;20459;-68
2023/09/07 12:04:49;;;;;;;4.43;3.90;;;;;;;;;;5087535;28;20444;-68
2023/09/07 12:07:16;;;;;;;5.27;4.63;;;;;;;;;;5073945;28;20895;-68
2023/09/07 12:09:43;;;;;;;4.60;3.93;;;;;;;;;;5075807;28;20432;-69
2023/09/07 12:12:11;;;;;;;4.13;3.00;;;;;;;;;;5075289;28;20938;-68
2023/09/07 12:14:38;;;;;;;5.73;4.10;;;;;;;;;;5074349;28;20545;-68
2023/09/07 12:17:05;;;;;;;8.67;3.50;;;;;;;;;;5073185;28;20498;-67
2023/09/07 12:19:33;;;;;;;4.70;3.20;;;;;;;;;;5070671;28;20449;-68
2023/09/07 12:22:01;;;;;;;7.57;3.40;;;;;;;;;;5075634;28;20468;-67
2023/09/07 12:24:28;;;;;;;4.73;3.80;;;;;;;;;;5081398;28;20441;-68
2023/09/07 12:26:56;;;;;;;5.07;4.00;;;;;;;;;;5060934;28;20529;-67
2023/09/07 12:29:23;;;;;;;4.47;3.40;;;;;;;;;;5073874;28;20445;-69
2023/09/07 12:31:50;;;;;;;4.23;3.60;;;;;;;;;;5073365;28;20465;-69
2023/09/07 12:34:17;;;;;;;5.87;4.20;;;;;;;;;;5073518;28;20481;-67
2023/09/07 12:36:45;;;;;;;4.97;3.90;;;;;;;;;;5073846;28;20449;-68
2023/09/07 12:39:14;;;;;;;5.13;3.37;;;;;;;;;;5073991;28;20487;-67
2023/09/07 12:41:41;;;;;;;3.80;3.00;;;;;;;;;;5073168;28;20465;-68
2023/09/07 12:44:08;;;;;;;3.47;2.90;;;;;;;;;;5073585;28;20480;-68
2023/09/07 12:46:37;;;;;;;3.80;3.17;;;;;;;;;;5073520;28;20453;-68
2023/09/07 12:49:04;;;;;;;6.00;3.23;;;;;;;;;;5073584;28;20448;-68
2023/09/07 12:51:31;;;;;;;3.53;3.23;;;;;;;;;;5072992;28;20461;-69
2023/09/07 12:53:58;;;;;;;3.83;3.07;;;;;;;;;;5072453;28;20517;-67
2023/09/07 12:56:27;;;;;;;4.50;3.30;;;;;;;;;;5073656;28;20814;-68
2023/09/07 12:58:57;;;;;;;4.20;3.00;;;;;;;;;;5073169;28;20469;-68
2023/09/07 13:01:24;;;;;;;5.57;3.30;;;;;;;;;;5068995;28;20468;-67
2023/09/07 13:03:51;;;;;;;3.73;2.93;;;;;;;;;;5073045;28;20814;-67
2023/09/07 13:06:18;;;;;;;4.73;3.30;;;;;;;;;;5072973;28;20812;-67
2023/09/07 13:08:46;;;;;;;4.47;3.50;;;;;;;;;;5072296;28;20441;-67
2023/09/07 13:11:13;;;;;;;4.00;3.60;;;;;;;;;;5072513;28;20930;-66
2023/09/07 13:13:41;;;;;;;3.67;2.67;;;;;;;;;;5071500;28;20448;-67
2023/09/07 13:16:08;;;;;;;3.50;3.17;;;;;;;;;;5072423;28;20485;-67
2023/09/07 13:18:35;;;;;;;4.60;3.03;;;;;;;;;;5071135;28;20445;-67
2023/09/07 13:21:02;;;;;;;3.47;2.87;;;;;;;;;;5072594;28;20441;-68
2023/09/07 13:23:31;;;;;;;3.40;2.87;;;;;;;;;;5072401;28;20444;-68
2023/09/07 13:26:00;;;;;;;4.33;3.03;;;;;;;;;;5071914;28;20519;-66
2023/09/07 13:28:27;;;;;;;5.40;2.87;;;;;;;;;;5072052;28;20950;-68
2023/09/07 13:30:55;;;;;;;3.67;3.20;;;;;;;;;;5071702;28;20445;-67
2023/09/07 13:33:23;;;;;;;5.60;3.20;;;;;;;;;;5070374;28;20463;-67
2023/09/07 13:35:50;;;;;;;6.13;3.40;;;;;;;;;;5072455;28;20491;-68
2023/09/07 13:38:17;;;;;;;5.73;3.23;;;;;;;;;;5071561;28;20213;-68
2023/09/07 13:40:44;;;;;;;3.13;2.63;;;;;;;;;;5072291;28;20441;-68
2023/09/07 13:43:11;;;;;;;4.13;2.73;;;;;;;;;;5072574;28;20352;-69
2023/09/07 13:45:38;;;;;;;4.37;3.20;;;;;;;;;;5071713;28;20520;-68
2023/09/07 13:48:07;;;;;;;4.70;3.13;;;;;;;;;;5071525;28;20230;-67
2023/09/07 13:50:34;;;;;;;4.00;3.13;;;;;;;;;;5070787;28;20202;-66
2023/09/07 13:53:01;;;;;;;3.30;2.53;;;;;;;;;;5071828;28;20598;-67
2023/09/07 13:55:28;;;;;;;3.57;2.50;;;;;;;;;;5071107;28;20725;-68
2023/09/07 13:57:55;;;;;;;4.03;3.10;;;;;;;;;;5072187;28;20206;-66
2023/09/07 14:00:23;;;;;;;4.60;3.17;;;;;;;;;;5071848;28;20199;-68
2023/09/07 14:02:50;;;;;;;2.90;2.40;;;;;;;;;;5071541;28;20313;-67
2023/09/07 14:05:21;;;;;;;3.70;2.90;;;;;;;;;;5071254;28;20468;-66
2023/09/07 14:07:51;;;;;;;3.83;2.70;;;;;;;;;;5071237;28;20283;-68
2023/09/07 14:10:18;;;;;;;3.33;2.73;;;;;;;;;;5071571;28;20221;-67
2023/09/07 14:12:48;;;;;;;4.90;3.00;;;;;;;;;;5071583;28;20620;-67
2023/09/07 14:15:15;;;;;;;3.80;2.73;;;;;;;;;;5063281;28;20222;-66
2023/09/07 14:17:42;;;;;;;3.00;2.70;;;;;;;;;;5071606;28;20213;-68
2023/09/07 14:20:09;;;;;;;4.23;3.10;;;;;;;;;;5071533;28;20198;-67
2023/09/07 14:22:38;;;;;;;3.93;2.97;;;;;;;;;;5071135;28;20227;-67
2023/09/07 14:25:07;;;;;;;3.20;2.80;;;;;;;;;;5069412;28;20594;-68
2023/09/07 14:27:34;;;;;;;5.83;2.90;;;;;;;;;;5071067;28;20742;-67
2023/09/07 14:30:01;;;;;;;3.27;2.60;;;;;;;;;;5070584;28;20220;-68
2023/09/07 14:32:28;;;;;;;5.10;4.13;;;;;;;;;;5071465;28;20230;-68
2023/09/07 14:34:55;;;;;;;3.50;2.60;;;;;;;;;;5071375;28;20223;-68
2023/09/07 14:37:22;;;;;;;2.78;2.30;;;;;;;;;;5071437;28;20210;-68
2023/09/07 14:39:50;;;;;;;3.17;2.55;;;;;;;;;;5070767;28;20210;-68
2023/09/07 14:42:19;;;;;;;3.80;2.97;;;;;;;;;;5071027;28;20222;-68
2023/09/07 14:44:47;;;;;;;6.18;3.38;;;;;;;;;;5070932;28;20202;-66
2023/09/07 14:47:14;;;;;;;5.53;3.35;;;;;;;;;;5071087;28;20206;-68